Time;durP1;ratioP1;P1;durP2;ratioP2;P2;SDS_P1;SDS_P2;PMS_P1;PMS_P2;Temp;Humidity;BMP_temperature;BMP_pressure;BME280_temperature;BME280_humidity;BME280_pressure;Samples;Min_cycle;Max_cycle;Signal;HPM_P1;HPM_P2
2021/05/19 00:00:53;;;;;;;9.75;3.80;;;;;;;26.06;30.27;98505.19;3323930;29;20547;-70
2021/05/19 00:02:34;;;;;;;8.38;3.35;;;;;;;26.05;30.28;98505.53;3324916;29;20050;-69
2021/05/19 00:04:15;;;;;;;7.73;3.03;;;;;;;26.03;30.19;98505.84;3319103;29;20467;-69
2021/05/19 00:05:56;;;;;;;11.95;3.97;;;;;;;26.00;30.00;98509.22;3325253;29;20054;-69
2021/05/19 00:07:37;;;;;;;7.17;3.43;;;;;;;25.96;30.25;98505.53;3325363;29;20042;-69
2021/05/19 00:09:18;;;;;;;10.32;3.58;;;;;;;25.90;30.31;98501.41;3323379;29;20168;-67
2021/05/19 00:10:59;;;;;;;8.50;3.47;;;;;;;25.91;29.97;98505.72;3325163;29;20038;-69
2021/05/19 00:12:41;;;;;;;11.87;3.80;;;;;;;25.87;30.38;98496.59;3325160;29;20058;-69
2021/05/19 00:14:22;;;;;;;10.77;3.58;;;;;;;25.88;30.29;98498.97;3325427;29;20054;-70
2021/05/19 00:16:06;;;;;;;11.97;3.53;;;;;;;25.87;30.44;98508.31;3324304;29;20557;-69
2021/05/19 00:17:47;;;;;;;11.05;3.78;;;;;;;25.90;30.69;98504.13;3325283;29;20050;-69
2021/05/19 00:19:28;;;;;;;10.07;3.35;;;;;;;25.88;30.47;98501.69;3325544;29;20049;-69
2021/05/19 00:21:10;;;;;;;7.53;3.80;;;;;;;25.87;29.97;98502.03;3324173;29;20050;-69
2021/05/19 00:22:50;;;;;;;11.05;3.63;;;;;;;25.84;30.57;98494.44;3324633;29;20475;-68
2021/05/19 00:24:31;;;;;;;9.40;3.67;;;;;;;25.83;30.49;98495.59;3326593;29;20053;-69
2021/05/19 00:26:14;;;;;;;10.55;3.38;;;;;;;25.83;30.39;98492.88;3330051;29;20418;-68
2021/05/19 00:27:55;;;;;;;3.57;3.10;;;;;;;25.83;30.39;98493.66;3329606;29;20053;-68
2021/05/19 00:29:36;;;;;;;8.60;3.60;;;;;;;25.83;30.53;98495.59;3324851;29;20054;-69
2021/05/19 00:31:20;;;;;;;7.32;3.17;;;;;;;25.80;30.16;98491.59;3322514;29;20485;-70
2021/05/19 00:33:01;;;;;;;7.07;3.85;;;;;;;25.79;30.25;98502.81;3324463;29;20038;-69
2021/05/19 00:34:42;;;;;;;6.37;3.43;;;;;;;25.77;30.30;98496.91;3322996;29;20137;-68
2021/05/19 00:36:27;;;;;;;7.03;3.28;;;;;;;25.76;30.34;98512.44;3323558;29;20054;-70
2021/05/19 00:38:07;;;;;;;10.90;3.70;;;;;;;25.73;30.10;98517.75;3323506;29;20042;-68
2021/05/19 00:39:48;;;;;;;10.33;3.97;;;;;;;25.66;30.39;98494.50;3309650;29;20035;-68
2021/05/19 00:41:29;;;;;;;9.37;2.97;;;;;;;25.64;30.67;98502.22;3321429;29;20057;-70
2021/05/19 00:43:10;;;;;;;7.63;3.33;;;;;;;25.65;30.31;98505.75;3323114;29;20046;-68
2021/05/19 00:44:50;;;;;;;8.17;3.40;;;;;;;25.65;30.51;98503.81;3323081;29;20098;-70
2021/05/19 00:46:32;;;;;;;16.97;4.73;;;;;;;25.64;30.51;98493.22;3322979;29;20819;-69
2021/05/19 00:48:14;;;;;;;7.82;2.75;;;;;;;25.64;30.65;98490.50;3323284;29;20149;-70
2021/05/19 00:49:56;;;;;;;8.13;3.15;;;;;;;25.64;30.74;98485.03;3323270;29;20465;-68
2021/05/19 00:51:37;;;;;;;6.97;3.10;;;;;;;25.70;30.92;98499.31;3320471;29;20077;-70
2021/05/19 00:53:18;;;;;;;7.28;3.47;;;;;;;25.68;30.95;98478.59;3319775;29;20046;-68
2021/05/19 00:54:58;;;;;;;12.07;3.07;;;;;;;25.68;30.74;98489.50;3320930;29;20117;-70
2021/05/19 00:56:40;;;;;;;7.13;3.08;;;;;;;25.66;30.60;98480.88;3320833;29;20069;-69
2021/05/19 00:58:21;;;;;;;7.18;3.45;;;;;;;25.64;30.60;98483.09;3320842;29;20046;-69
2021/05/19 01:00:05;;;;;;;7.53;3.47;;;;;;;25.66;30.56;98482.78;3335503;29;20106;-70
2021/05/19 01:01:59;;;;;;;8.35;2.97;;;;;;;25.64;30.72;98485.03;3322598;29;20040;-69
2021/05/19 01:03:41;;;;;;;8.25;3.50;;;;;;;25.63;31.05;98486.94;3323701;29;20046;-68
2021/05/19 01:07:34;;;;;;;10.57;3.40;;;;;;;25.60;30.84;98471.22;3324480;29;20050;-69
2021/05/19 01:11:17;;;;;;;7.50;4.28;;;;;;;25.55;31.27;98474.13;3324605;29;20157;-69
2021/05/19 01:12:58;;;;;;;8.00;3.40;;;;;;;25.54;31.25;98478.00;3325997;29;20125;-69
2021/05/19 01:14:39;;;;;;;8.50;2.93;;;;;;;25.51;30.91;98465.00;3326013;29;20422;-68
2021/05/19 01:16:19;;;;;;;8.93;3.43;;;;;;;25.43;30.83;98460.34;3325477;29;20043;-69
2021/05/19 01:18:03;;;;;;;9.97;3.50;;;;;;;25.48;31.15;98467.56;3325703;29;20042;-70
2021/05/19 01:19:46;;;;;;;5.80;2.88;;;;;;;25.47;31.02;98477.66;3324433;29;20525;-69
2021/05/19 01:21:27;;;;;;;5.10;2.95;;;;;;;25.46;31.08;98468.69;3324851;29;20050;-70
2021/05/19 01:23:08;;;;;;;8.85;3.85;;;;;;;25.45;30.82;98469.81;3311921;29;20039;-68
2021/05/19 01:24:50;;;;;;;7.83;3.30;;;;;;;25.44;31.40;98461.94;3321345;29;20107;-69
2021/05/19 01:26:31;;;;;;;5.50;3.28;;;;;;;25.44;31.32;98476.38;3323466;29;20065;-68
2021/05/19 01:28:12;;;;;;;8.85;3.35;;;;;;;25.46;31.18;98467.91;3323386;29;20047;-68
2021/05/19 01:29:54;;;;;;;5.50;3.33;;;;;;;25.47;31.16;98464.03;3324251;29;20077;-70
2021/05/19 01:31:36;;;;;;;5.88;3.17;;;;;;;25.46;31.11;98470.63;3309464;29;20449;-70
2021/05/19 01:33:17;;;;;;;8.57;3.83;;;;;;;25.50;31.04;98466.09;3319861;29;20048;-69
2021/05/19 01:34:59;;;;;;;5.43;3.10;;;;;;;25.48;31.18;98468.38;3323791;29;20043;-67
2021/05/19 01:36:39;;;;;;;10.13;3.47;;;;;;;25.49;31.07;98480.09;3323186;29;20458;-69
2021/05/19 01:38:20;;;;;;;7.07;2.97;;;;;;;25.46;31.05;98465.16;3322558;29;20518;-68
2021/05/19 01:40:01;;;;;;;9.43;3.60;;;;;;;25.42;30.96;98456.00;3320409;29;20296;-68
2021/05/19 01:41:43;;;;;;;6.00;3.05;;;;;;;25.37;30.77;98456.19;3319921;29;20376;-69
2021/05/19 01:43:33;;;;;;;6.90;3.40;;;;;;;25.34;31.28;98463.06;3320160;29;20060;-68
2021/05/19 01:45:34;;;;;;;7.35;3.30;;;;;;;25.29;31.21;98463.25;3330109;29;20069;-68
2021/05/19 01:47:15;;;;;;;8.90;3.20;;;;;;;25.29;31.10;98465.97;3322571;29;20050;-68
2021/05/19 01:48:59;;;;;;;5.28;3.30;;;;;;;25.28;31.50;98458.91;3323487;29;20419;-68
2021/05/19 01:50:41;;;;;;;5.90;2.70;;;;;;;25.30;31.63;98461.31;3322207;29;20051;-68
2021/05/19 01:52:22;;;;;;;8.57;4.10;;;;;;;25.32;31.47;98468.03;3323732;29;20122;-69
2021/05/19 01:54:07;;;;;;;4.78;3.00;;;;;;;25.33;31.15;98474.31;3309882;29;20096;-69
2021/05/19 01:55:47;;;;;;;10.90;3.63;;;;;;;25.31;31.22;98458.28;3321374;29;20049;-69
2021/05/19 01:57:30;;;;;;;13.10;2.78;;;;;;;25.31;31.35;98460.19;3309455;29;20042;-69
2021/05/19 01:59:11;;;;;;;12.65;3.40;;;;;;;25.30;31.05;98464.03;3319934;29;20042;-69
2021/05/19 02:00:53;;;;;;;6.07;3.08;;;;;;;25.30;31.24;98466.75;3337339;29;20038;-68
2021/05/19 02:02:43;;;;;;;8.32;2.90;;;;;;;25.29;31.32;98457.78;3325141;29;20038;-69
2021/05/19 02:04:30;;;;;;;10.63;3.28;;;;;;;25.27;31.40;98453.78;3335840;29;20505;-69
2021/05/19 02:06:11;;;;;;;8.13;2.72;;;;;;;25.24;31.32;98447.84;3327614;29;20137;-68
2021/05/19 02:07:53;;;;;;;8.45;3.15;;;;;;;25.23;31.79;98459.88;3326439;29;20054;-71
2021/05/19 02:09:36;;;;;;;11.48;2.95;;;;;;;25.28;31.60;98463.59;3325200;29;20054;-69
2021/05/19 02:11:19;;;;;;;7.25;2.90;;;;;;;25.26;31.48;98450.25;3322191;29;20613;-68
2021/05/19 02:13:06;;;;;;;4.10;3.22;;;;;;;25.24;31.44;98458.75;3322574;29;20042;-70
2021/05/19 02:14:49;;;;;;;5.55;3.45;;;;;;;25.18;31.62;98445.63;3322933;29;20565;-70
2021/05/19 02:16:30;;;;;;;5.77;3.33;;;;;;;25.17;31.62;98442.09;3334405;29;20137;-70
2021/05/19 02:18:11;;;;;;;6.38;4.07;;;;;;;25.13;31.89;98422.00;3327493;29;20046;-69
2021/05/19 02:19:52;;;;;;;10.90;4.10;;;;;;;25.14;31.79;98411.88;3326217;29;20129;-69
2021/05/19 02:21:33;;;;;;;8.45;4.07;;;;;;;25.16;31.67;98415.13;3324449;29;21031;-69
2021/05/19 02:23:21;;;;;;;5.85;3.60;;;;;;;25.17;31.69;98420.28;3323259;29;20552;-69
2021/05/19 02:25:04;;;;;;;5.05;3.10;;;;;;;25.17;31.74;98412.09;3325969;29;20052;-70
2021/05/19 02:26:45;;;;;;;9.05;3.88;;;;;;;25.19;31.76;98411.75;3325299;29;20132;-68
2021/05/19 02:28:29;;;;;;;7.80;3.60;;;;;;;25.19;31.90;98418.00;3324300;29;20491;-69
2021/05/19 02:30:12;;;;;;;5.18;2.53;;;;;;;25.22;31.99;98420.09;3334758;29;20529;-70
2021/05/19 02:31:53;;;;;;;10.25;3.05;;;;;;;25.24;31.94;98420.56;3324454;29;20417;-68
2021/05/19 02:33:34;;;;;;;7.53;3.17;;;;;;;25.24;31.94;98409.66;3321829;29;20043;-70
2021/05/19 02:35:16;;;;;;;;;;;;;;;25.28;31.79;98409.81;3322202;29;20299;-70
2021/05/19 02:37:00;;;;;;;6.20;2.90;;;;;;;25.20;31.97;98403.25;3324983;29;19931;-71
2021/05/19 02:38:41;;;;;;;7.55;3.03;;;;;;;25.22;32.00;98401.03;3325140;29;20137;-70
2021/05/19 02:40:22;;;;;;;8.00;2.70;;;;;;;25.22;32.13;98400.19;3324658;29;20051;-70
2021/05/19 02:42:03;;;;;;;7.73;3.43;;;;;;;25.23;32.13;98401.81;3325129;29;20091;-70
2021/05/19 02:43:44;;;;;;;9.55;3.05;;;;;;;25.24;32.08;98400.69;3324971;29;20050;-70
2021/05/19 02:45:25;;;;;;;6.07;3.57;;;;;;;25.21;31.96;98395.88;3325024;29;20103;-70
2021/05/19 02:47:06;;;;;;;12.10;3.23;;;;;;;25.18;32.10;98397.31;3324595;29;20069;-69
2021/05/19 02:48:46;;;;;;;6.93;3.03;;;;;;;25.20;32.48;98403.25;3325035;29;20054;-70
2021/05/19 02:50:27;;;;;;;9.20;3.73;;;;;;;25.20;32.24;98411.44;3325341;29;20038;-68
2021/05/19 02:52:08;;;;;;;6.80;3.23;;;;;;;25.19;32.32;98411.75;3324867;29;20526;-70
2021/05/19 02:53:48;;;;;;;6.83;3.10;;;;;;;25.20;32.46;98419.63;3324956;29;20046;-69
2021/05/19 02:55:31;;;;;;;8.90;3.10;;;;;;;25.20;32.52;98419.63;3323855;29;20038;-71
2021/05/19 02:57:12;;;;;;;11.93;3.45;;;;;;;25.18;32.39;98432.78;3325006;29;20425;-69
2021/05/19 02:58:53;;;;;;;7.30;3.60;;;;;;;25.19;32.52;98478.00;3325802;29;20038;-69
2021/05/19 03:00:34;;;;;;;5.07;3.23;;;;;;;25.22;32.68;98444.66;3324149;29;20088;-71
2021/05/19 03:02:14;;;;;;;5.10;3.47;;;;;;;25.26;32.58;98460.38;3324411;29;20106;-69
2021/05/19 03:03:55;;;;;;;9.47;3.70;;;;;;;25.26;32.66;98482.19;3325305;29;20038;-68
2021/05/19 03:05:36;;;;;;;6.93;3.50;;;;;;;25.25;32.38;98481.38;3325426;29;20099;-69
2021/05/19 03:07:17;;;;;;;7.07;2.80;;;;;;;25.23;32.52;98461.81;3325244;29;20291;-70
2021/05/19 03:08:57;;;;;;;4.37;3.23;;;;;;;25.22;32.53;98465.66;3324102;29;20487;-70
2021/05/19 03:10:38;;;;;;;11.73;3.90;;;;;;;25.26;32.42;98460.38;3323117;29;20046;-68
2021/05/19 03:12:19;;;;;;;7.80;3.47;;;;;;;25.26;32.61;98482.19;3324475;29;20047;-68
2021/05/19 03:14:01;;;;;;;6.87;3.30;;;;;;;25.27;32.57;98462.75;3325064;29;20041;-70
2021/05/19 03:15:41;;;;;;;7.00;3.30;;;;;;;25.33;32.66;98480.56;3324525;29;20042;-71
2021/05/19 03:17:22;;;;;;;8.40;3.33;;;;;;;25.31;32.26;98482.03;3324774;29;20467;-72
2021/05/19 03:19:04;;;;;;;11.23;3.87;;;;;;;25.23;32.39;98457.16;3324916;29;20038;-68
2021/05/19 03:20:45;;;;;;;5.07;2.88;;;;;;;25.21;32.60;98464.06;3324644;29;20050;-69
2021/05/19 03:22:26;;;;;;;8.13;3.37;;;;;;;25.23;32.65;98450.91;3325040;29;20057;-68
2021/05/19 03:24:07;;;;;;;9.87;3.80;;;;;;;25.23;32.47;98473.53;3325263;29;20099;-68
2021/05/19 03:25:48;;;;;;;5.07;2.77;;;;;;;25.21;32.78;98453.94;3324817;29;20136;-70
2021/05/19 03:27:29;;;;;;;;;;;;;;;25.30;32.53;98450.41;3324153;29;20045;-70
2021/05/19 03:29:10;;;;;;;7.25;3.17;;;;;;;25.22;32.58;98452.84;3321105;29;20439;-69
2021/05/19 03:30:51;;;;;;;9.00;3.00;;;;;;;25.18;32.57;98440.94;3324776;29;20489;-70
2021/05/19 03:32:32;;;;;;;6.57;3.15;;;;;;;25.12;32.44;98461.31;3324535;29;20511;-70
2021/05/19 03:34:13;;;;;;;7.23;3.30;;;;;;;25.19;32.52;98478.00;3324769;29;20102;-69
2021/05/19 03:35:54;;;;;;;7.83;2.87;;;;;;;25.18;32.57;98470.16;3324692;29;20035;-67
2021/05/19 03:37:35;;;;;;;9.30;3.50;;;;;;;25.26;32.58;98468.53;3323896;29;20303;-69
2021/05/19 03:39:16;;;;;;;9.02;3.83;;;;;;;25.27;32.60;98478.31;3322441;29;20048;-69
2021/05/19 03:40:56;;;;;;;5.47;2.57;;;;;;;25.27;32.68;98478.31;3324045;29;20524;-68
2021/05/19 03:42:38;;;;;;;6.27;3.27;;;;;;;25.27;32.64;98483.78;3324566;29;20043;-68
2021/05/19 03:44:18;;;;;;;7.53;3.20;;;;;;;25.31;32.58;98503.84;3323579;29;20049;-68
2021/05/19 03:46:00;;;;;;;11.20;3.30;;;;;;;25.34;32.56;98478.66;3322808;29;20070;-70
2021/05/19 03:47:40;;;;;;;9.60;3.25;;;;;;;25.36;32.69;98481.88;3324739;29;20042;-69
2021/05/19 03:49:22;;;;;;;7.27;3.00;;;;;;;25.37;32.48;98499.81;3322986;29;20054;-68
2021/05/19 03:51:03;;;;;;;5.35;3.00;;;;;;;25.41;32.62;98489.88;3325179;29;20039;-68
2021/05/19 03:52:44;;;;;;;9.35;3.58;;;;;;;25.45;32.51;98497.09;3323620;29;20057;-69
2021/05/19 03:54:24;;;;;;;10.93;3.70;;;;;;;25.46;32.56;98487.00;3323224;29;20038;-69
2021/05/19 03:56:05;;;;;;;7.63;3.20;;;;;;;25.46;32.58;98485.06;3324723;29;20053;-70
2021/05/19 03:57:46;;;;;;;9.43;3.20;;;;;;;25.45;32.73;98472.56;3323891;29;20077;-70
2021/05/19 03:59:27;;;;;;;6.73;3.97;;;;;;;25.51;32.56;98473.19;3323297;29;20102;-68
2021/05/19 04:01:07;;;;;;;10.47;3.90;;;;;;;25.51;32.90;98489.56;3323087;29;20066;-69
2021/05/19 04:02:51;;;;;;;5.33;3.40;;;;;;;25.55;32.63;98485.03;3322476;29;20081;-69
2021/05/19 04:04:32;;;;;;;7.70;3.20;;;;;;;25.61;32.65;98469.31;3324003;29;20464;-70
2021/05/19 04:06:13;;;;;;;9.97;3.50;;;;;;;25.57;32.45;98477.34;3323675;29;20114;-70
2021/05/19 04:07:56;;;;;;;5.80;3.53;;;;;;;25.67;32.84;98457.91;3324166;29;20300;-70
2021/05/19 04:09:36;;;;;;;9.80;3.50;;;;;;;25.73;32.67;98468.63;3326282;29;20049;-70
2021/05/19 04:11:17;;;;;;;12.00;4.27;;;;;;;25.73;32.91;98463.19;3323276;29;20046;-69
2021/05/19 04:13:00;;;;;;;9.18;3.70;;;;;;;25.81;32.66;98465.09;3322899;29;20132;-70
2021/05/19 04:14:40;;;;;;;8.63;4.00;;;;;;;25.88;32.63;98465.41;3323337;29;20502;-68
2021/05/19 04:16:21;;;;;;;6.70;3.40;;;;;;;25.93;32.73;98462.50;3323171;29;20050;-70
2021/05/19 04:18:03;;;;;;;7.17;3.43;;;;;;;25.97;32.59;98473.56;3322705;29;20542;-70
2021/05/19 04:19:44;;;;;;;8.38;4.20;;;;;;;25.94;32.77;98464.09;3324273;29;20038;-69
2021/05/19 04:21:25;;;;;;;11.47;3.97;;;;;;;25.93;32.74;98472.63;3322535;29;20094;-70
2021/05/19 04:23:06;;;;;;;11.15;4.40;;;;;;;25.91;33.09;98459.31;3323640;29;20582;-68
2021/05/19 04:24:46;;;;;;;11.13;4.43;;;;;;;25.93;32.96;98467.19;3323614;29;20066;-71
2021/05/19 04:26:27;;;;;;;16.03;3.83;;;;;;;25.93;33.39;98459.00;3323321;29;20526;-69
2021/05/19 04:28:10;;;;;;;11.87;3.67;;;;;;;25.89;33.60;98467.00;3324364;29;20041;-69
2021/05/19 04:29:51;;;;;;;11.88;4.38;;;;;;;25.89;33.60;98467.00;3323787;29;20472;-68
2021/05/19 04:31:32;;;;;;;14.20;3.93;;;;;;;25.95;33.39;98465.72;3324352;29;20042;-70
2021/05/19 04:33:14;;;;;;;11.15;3.90;;;;;;;26.01;33.41;98464.41;3324014;29;20047;-69
2021/05/19 04:34:55;;;;;;;6.72;3.97;;;;;;;26.00;33.45;98476.47;3323958;29;20391;-71
2021/05/19 04:36:36;;;;;;;9.03;4.07;;;;;;;26.01;33.56;98472.59;3323478;29;20053;-70
2021/05/19 04:38:16;;;;;;;20.43;4.07;;;;;;;25.98;33.79;98470.53;3323859;29;20478;-74
2021/05/19 04:39:57;;;;;;;38.27;21.80;;;;;;;25.95;34.05;98465.72;3323986;29;20042;-73
2021/05/19 04:41:38;;;;;;;11.03;5.00;;;;;;;25.98;33.72;98476.00;3324180;29;20513;-72
2021/05/19 04:43:19;;;;;;;12.60;4.50;;;;;;;25.98;34.14;98486.13;3323866;29;20133;-71
2021/05/19 04:45:02;;;;;;;8.07;3.90;;;;;;;26.01;34.06;98478.06;3322738;29;20084;-72
2021/05/19 04:46:42;;;;;;;13.73;4.10;;;;;;;26.04;34.11;98482.88;3323985;29;20040;-71
2021/05/19 04:48:23;;;;;;;12.80;3.53;;;;;;;26.08;34.10;98483.81;3323115;29;20389;-74
2021/05/19 04:50:06;;;;;;;9.10;3.67;;;;;;;26.14;34.03;98486.38;3324333;29;20046;-72
2021/05/19 04:51:47;;;;;;;12.23;4.10;;;;;;;26.16;34.18;98503.25;3324335;29;20517;-70
2021/05/19 04:53:27;;;;;;;12.37;4.27;;;;;;;26.13;34.10;98499.25;3322677;29;20038;-71
2021/05/19 04:55:10;;;;;;;16.27;4.53;;;;;;;26.09;34.00;98493.59;3323770;29;20077;-71
2021/05/19 04:56:51;;;;;;;9.95;3.80;;;;;;;26.08;34.29;98493.97;3323810;29;20050;-70
2021/05/19 04:58:31;;;;;;;22.88;5.10;;;;;;;26.07;34.48;98500.53;3323787;29;20545;-70
2021/05/19 05:00:13;;;;;;;8.20;3.63;;;;;;;26.06;34.61;98502.47;3324014;29;20034;-72
2021/05/19 05:01:53;;;;;;;10.13;3.75;;;;;;;26.08;34.53;98505.66;3324285;29;20046;-71
2021/05/19 05:03:34;;;;;;;11.03;3.67;;;;;;;26.11;34.55;98520.59;3322783;29;20451;-70
2021/05/19 05:05:15;;;;;;;17.07;4.17;;;;;;;26.16;34.52;98514.97;3323190;29;20043;-71
2021/05/19 05:06:56;;;;;;;9.00;4.10;;;;;;;26.19;34.45;98510.78;3323954;29;20070;-71
2021/05/19 05:08:36;;;;;;;14.67;3.70;;;;;;;26.26;34.27;98514.59;3322696;29;20502;-72
2021/05/19 05:10:17;;;;;;;7.30;3.97;;;;;;;26.33;34.71;98503.16;3324537;29;20047;-73
2021/05/19 05:11:59;;;;;;;15.50;3.90;;;;;;;26.31;34.63;98519.09;3323948;29;20050;-70
2021/05/19 05:13:40;;;;;;;13.45;3.45;;;;;;;26.29;34.38;98510.41;3322292;29;20409;-72
2021/05/19 05:15:21;;;;;;;14.30;3.80;;;;;;;26.33;34.72;98514.09;3322259;29;20166;-70
2021/05/19 05:17:02;;;;;;;;;;;;;;;26.44;34.11;98515.34;3324280;29;20051;-70
2021/05/19 05:18:43;;;;;;;8.00;3.53;;;;;;;26.44;34.44;98520.81;3322967;29;20011;-73
2021/05/19 05:20:24;;;;;;;8.52;3.40;;;;;;;26.45;34.61;98533.31;3323431;29;20426;-72
2021/05/19 05:22:05;;;;;;;6.17;3.33;;;;;;;26.48;34.54;98561.94;3323855;29;20050;-72
2021/05/19 05:23:45;;;;;;;8.07;3.07;;;;;;;26.49;34.98;98528.81;3322793;29;20049;-73
2021/05/19 05:25:26;;;;;;;13.17;3.20;;;;;;;26.46;35.00;98562.28;3321657;29;20061;-73
2021/05/19 05:27:07;;;;;;;7.23;3.50;;;;;;;26.42;35.34;98546.84;3323021;29;20405;-73
2021/05/19 05:28:48;;;;;;;5.70;3.00;;;;;;;26.37;35.29;98542.38;3322050;29;20108;-71
2021/05/19 05:30:28;;;;;;;5.53;2.57;;;;;;;26.39;35.15;98548.31;3322108;29;20042;-72
2021/05/19 05:32:09;;;;;;;8.53;2.97;;;;;;;26.44;35.24;98552.81;3308691;29;20046;-72
2021/05/19 05:33:51;;;;;;;10.80;3.77;;;;;;;26.51;35.23;98558.53;3317999;29;20038;-74
2021/05/19 05:35:31;;;;;;;6.80;3.05;;;;;;;26.56;35.49;98572.03;3322587;29;20050;-72
2021/05/19 05:37:12;;;;;;;8.97;4.00;;;;;;;26.63;35.33;98563.34;3322113;29;20082;-72
2021/05/19 05:38:53;;;;;;;7.03;3.00;;;;;;;26.71;35.14;98565.25;3325052;29;20038;-71
2021/05/19 05:40:35;;;;;;;12.40;3.47;;;;;;;26.79;35.21;98569.84;3324881;29;20077;-72
2021/05/19 05:42:16;;;;;;;6.55;2.83;;;;;;;26.81;35.49;98586.75;3324507;29;20456;-71
2021/05/19 05:43:57;;;;;;;11.87;2.60;;;;;;;26.79;35.21;98564.38;3325303;29;20049;-73
2021/05/19 05:45:38;;;;;;;5.43;2.90;;;;;;;26.76;35.54;98573.25;3324227;29;20530;-72
2021/05/19 05:47:19;;;;;;;8.40;2.97;;;;;;;26.75;35.56;98574.41;3324518;29;20530;-72
2021/05/19 05:49:00;;;;;;;10.33;2.73;;;;;;;26.74;35.34;98576.34;3325315;29;20095;-72
2021/05/19 05:50:40;;;;;;;10.07;2.80;;;;;;;26.76;35.32;98574.06;3325395;29;20042;-73
2021/05/19 05:52:21;;;;;;;10.53;3.43;;;;;;;26.81;35.22;98575.81;3325061;29;20054;-71
2021/05/19 05:54:02;;;;;;;8.27;3.87;;;;;;;26.86;35.69;98581.09;3325602;29;20053;-72
2021/05/19 05:55:43;;;;;;;5.20;2.08;;;;;;;26.88;35.48;98584.28;3324742;29;20039;-72
2021/05/19 05:57:23;;;;;;;7.17;2.40;;;;;;;26.90;35.67;98575.75;3325545;29;20054;-73
2021/05/19 05:59:04;;;;;;;5.77;2.40;;;;;;;26.97;35.76;98595.97;3323273;29;20043;-72
2021/05/19 06:00:45;;;;;;;9.30;2.67;;;;;;;26.98;35.62;98588.59;3324167;29;20038;-74
2021/05/19 06:02:29;;;;;;;10.47;2.53;;;;;;;27.02;35.71;98594.19;3323834;29;20057;-72
2021/05/19 06:04:09;;;;;;;6.57;2.15;;;;;;;27.03;36.03;98590.31;3321865;29;20121;-73
2021/05/19 06:05:50;;;;;;;15.13;2.47;;;;;;;27.03;35.97;98590.31;3324598;29;20498;-73
2021/05/19 06:07:31;;;;;;;16.47;2.47;;;;;;;27.08;35.97;98610.09;3310253;29;20043;-72
2021/05/19 06:09:12;;;;;;;5.33;1.90;;;;;;;27.13;35.63;98604.44;3319999;29;20053;-72
2021/05/19 06:10:53;;;;;;;9.07;2.00;;;;;;;27.15;36.15;98604.09;3324681;29;20061;-73
2021/05/19 06:12:33;;;;;;;11.13;2.00;;;;;;;27.16;36.35;98603.78;3323161;29;21199;-72
2021/05/19 06:14:16;;;;;;;8.53;1.80;;;;;;;27.25;36.10;98619.34;3324598;29;20042;-73
2021/05/19 06:15:58;;;;;;;8.57;2.15;;;;;;;27.28;36.27;98607.75;3324328;29;20133;-74
2021/05/19 06:17:39;;;;;;;7.60;2.08;;;;;;;27.37;35.99;98633.94;3323348;29;20077;-73
2021/05/19 06:19:19;;;;;;;4.00;1.67;;;;;;;27.43;36.15;98598.16;3324672;29;20418;-72
2021/05/19 06:21:00;;;;;;;4.60;2.10;;;;;;;27.54;35.95;98596.59;3324123;29;20072;-71
2021/05/19 06:22:41;;;;;;;4.13;1.87;;;;;;;27.66;35.96;98599.41;3325036;29;20042;-72
2021/05/19 06:24:22;;;;;;;6.00;2.10;;;;;;;27.78;35.66;98588.53;3324276;29;20872;-72
2021/05/19 06:26:02;;;;;;;7.17;2.03;;;;;;;27.89;35.68;98599.09;3325095;29;20099;-71
2021/05/19 06:27:44;;;;;;;8.13;2.27;;;;;;;27.99;35.37;98598.69;3324407;29;20133;-71
2021/05/19 06:29:25;;;;;;;11.30;1.65;;;;;;;28.04;35.95;98607.47;3325029;29;20130;-72
2021/05/19 06:31:06;;;;;;;15.07;2.40;;;;;;;28.06;35.90;98593.44;3327186;29;20046;-73
2021/05/19 06:32:47;;;;;;;8.83;2.30;;;;;;;28.13;35.71;98601.91;3325133;29;20049;-71
2021/05/19 06:34:28;;;;;;;11.52;1.80;;;;;;;28.30;35.80;98598.19;3325620;29;20098;-73
2021/05/19 06:36:09;;;;;;;10.67;1.73;;;;;;;28.41;35.38;98599.34;3325207;29;20043;-73
2021/05/19 06:37:50;;;;;;;6.40;1.83;;;;;;;28.47;35.37;98602.69;3325366;29;20046;-73
2021/05/19 06:39:31;;;;;;;10.07;1.87;;;;;;;28.57;35.33;98612.44;3325033;29;20307;-72
2021/05/19 06:41:12;;;;;;;8.20;1.60;;;;;;;28.68;35.61;98602.63;3324886;29;20463;-71
2021/05/19 06:42:52;;;;;;;10.23;1.70;;;;;;;28.68;35.05;98610.84;3325709;29;20050;-73
2021/05/19 06:44:33;;;;;;;7.77;2.40;;;;;;;28.77;35.21;98619.78;3324308;29;21320;-71
2021/05/19 06:46:14;;;;;;;4.40;1.90;;;;;;;28.85;35.30;98637.25;3325009;29;20311;-73
2021/05/19 06:47:55;;;;;;;13.03;2.90;;;;;;;28.86;35.25;98627.88;3329156;29;20497;-72
2021/05/19 06:49:36;;;;;;;7.00;1.90;;;;;;;28.86;34.97;98623.22;3327829;29;20045;-72
2021/05/19 06:51:17;;;;;;;2.50;1.90;;;;;;;28.86;35.33;98616.91;3325241;29;20488;-73
2021/05/19 06:52:58;;;;;;;8.37;2.10;;;;;;;28.97;34.95;98623.56;3325324;29;20360;-74
2021/05/19 06:54:39;;;;;;;;;;;;;;;29.08;34.75;98637.66;3325701;29;20299;-71
2021/05/19 06:56:20;;;;;;;2.28;1.50;;;;;;;28.99;35.53;98656.94;3325189;29;19924;-74
2021/05/19 06:58:01;;;;;;;5.00;1.70;;;;;;;28.84;35.38;98628.25;3325604;29;20425;-74
2021/05/19 06:59:42;;;;;;;10.00;1.90;;;;;;;28.77;35.68;98657.38;3324431;29;20464;-73
2021/05/19 07:01:22;;;;;;;7.77;1.83;;;;;;;28.75;35.90;98654.97;3310299;29;20094;-73
2021/05/19 07:03:03;;;;;;;7.97;2.00;;;;;;;28.80;36.04;98642.97;3321877;29;20299;-71
2021/05/19 07:04:44;;;;;;;8.20;1.92;;;;;;;28.90;35.41;98675.44;3323871;29;20046;-72
2021/05/19 07:06:25;;;;;;;7.57;1.93;;;;;;;29.02;35.68;98661.75;3323853;29;20058;-72
2021/05/19 07:08:06;;;;;;;5.90;1.30;;;;;;;29.12;35.47;98666.81;3323961;29;20510;-72
2021/05/19 07:09:57;;;;;;;6.18;1.30;;;;;;;29.21;35.50;98672.16;3321776;29;20038;-72
2021/05/19 07:11:38;;;;;;;7.30;1.40;;;;;;;29.25;35.47;98675.84;3323152;29;20509;-71
2021/05/19 07:13:19;;;;;;;3.75;1.00;;;;;;;29.14;35.76;98685.66;3325023;29;20042;-72
2021/05/19 07:15:03;;;;;;;5.27;1.20;;;;;;;28.98;36.35;98679.22;3325718;29;20042;-73
2021/05/19 07:16:53;;;;;;;8.13;1.65;;;;;;;28.84;36.16;98704.25;3323475;29;20061;-71
2021/05/19 07:18:36;;;;;;;12.90;1.77;;;;;;;28.67;36.34;98700.53;3324761;29;20042;-72
2021/05/19 07:20:17;;;;;;;4.00;1.15;;;;;;;28.47;36.66;98709.63;3315583;29;20069;-73
2021/05/19 07:21:58;;;;;;;21.03;1.70;;;;;;;28.34;36.95;98713.41;3335429;29;20046;-73
2021/05/19 07:23:38;;;;;;;26.17;1.83;;;;;;;28.22;37.21;98701.28;3338532;29;20050;-72
2021/05/19 07:25:19;;;;;;;6.10;1.20;;;;;;;28.17;37.68;98697.94;3333845;29;20061;-72
2021/05/19 07:27:02;;;;;;;;;;;;;;;28.22;37.06;98703.22;3326895;29;20053;-72
2021/05/19 07:28:44;;;;;;;4.35;0.90;;;;;;;28.18;37.97;98710.50;3336411;29;19928;-72
2021/05/19 07:30:24;;;;;;;;;;;;;;;28.44;36.90;98724.00;3337489;29;20541;-72
2021/05/19 07:32:08;;;;;;;3.75;1.25;;;;;;;28.52;37.67;98698.44;3324879;29;19921;-71
2021/05/19 07:33:49;;;;;;;7.13;0.90;;;;;;;28.57;37.35;98739.34;3325314;29;20095;-72
2021/05/19 07:35:31;;;;;;;4.32;1.17;;;;;;;28.51;37.55;98727.00;3324779;29;20070;-71
2021/05/19 07:37:13;;;;;;;2.35;1.08;;;;;;;28.37;37.37;98734.66;3324843;29;20050;-75
2021/05/19 07:38:55;;;;;;;4.00;1.10;;;;;;;28.19;37.75;98718.41;3325349;29;20057;-73
2021/05/19 07:40:35;;;;;;;;;;;;;;;28.32;37.27;98708.28;3325529;29;20066;-73
2021/05/19 07:42:18;;;;;;;4.60;0.70;;;;;;;28.37;37.59;98704.53;3324960;29;20394;-74
2021/05/19 07:43:59;;;;;;;1.60;0.73;;;;;;;28.59;37.21;98697.91;3324560;29;20053;-73
2021/05/19 07:45:42;;;;;;;3.95;0.95;;;;;;;28.76;37.28;98711.44;3323697;29;20049;-73
2021/05/19 07:47:24;;;;;;;7.30;1.17;;;;;;;28.83;37.32;98713.59;3324513;29;20057;-73
2021/05/19 07:49:06;;;;;;;5.60;1.30;;;;;;;28.79;37.22;98718.19;3323537;29;20058;-73
2021/05/19 07:50:47;;;;;;;;;;;;;;;28.85;37.10;98716.81;3325552;29;20553;-73
2021/05/19 07:52:27;;;;;;;4.03;1.58;;;;;;;28.78;37.94;98713.81;3325176;29;19928;-74
2021/05/19 07:54:11;;;;;;;4.23;1.13;;;;;;;28.66;37.99;98709.13;3324722;29;20074;-72
2021/05/19 07:56:06;;;;;;;5.25;1.23;;;;;;;28.52;37.82;98728.59;3323681;29;20099;-73
2021/05/19 07:57:51;;;;;;;4.82;1.25;;;;;;;28.51;38.24;98713.28;3324577;29;20076;-75
2021/05/19 07:59:32;;;;;;;4.45;1.17;;;;;;;28.55;38.08;98718.91;3323967;29;20121;-72
2021/05/19 08:01:31;;;;;;;6.10;1.42;;;;;;;28.56;38.48;98704.84;3324871;29;20042;-73
2021/05/19 08:03:12;;;;;;;5.47;1.50;;;;;;;28.69;38.71;98714.72;3325309;29;20058;-73